createdAt,value
2022-12-09T00:00:13.815Z,0.50
2022-12-09T00:02:41.261Z,0.30
2022-12-09T00:05:09.503Z,0.30
2022-12-09T00:07:36.992Z,0.30
2022-12-09T00:10:05.703Z,0.30
2022-12-09T00:12:33.392Z,0.30
2022-12-09T00:15:00.738Z,0.40
2022-12-09T00:17:28.207Z,0.40
2022-12-09T00:19:55.597Z,0.30
2022-12-09T00:22:22.918Z,0.30
2022-12-09T00:24:50.334Z,0.30
2022-12-09T00:27:17.612Z,0.30
2022-12-09T00:29:45.062Z,0.20
2022-12-09T00:32:12.700Z,0.20
2022-12-09T00:34:40.080Z,0.20
2022-12-09T00:37:07.518Z,0.10
2022-12-09T00:39:35.003Z,0.10
2022-12-09T00:42:02.611Z,0.10
2022-12-09T00:44:30.198Z,0.10
2022-12-09T00:46:57.653Z,0.00
2022-12-09T00:49:25.241Z,0.00
2022-12-09T00:51:54.212Z,0.00
2022-12-09T00:54:21.497Z,0.00
2022-12-09T00:56:48.744Z,-0.10
2022-12-09T00:59:15.929Z,0.00
2022-12-09T01:01:43.256Z,0.00
2022-12-09T01:04:10.863Z,0.00
2022-12-09T01:06:38.444Z,0.10
2022-12-09T01:09:06.025Z,0.10
2022-12-09T01:11:33.350Z,0.00
2022-12-09T01:14:02.361Z,0.00
2022-12-09T01:16:32.605Z,0.10
2022-12-09T01:19:01.864Z,0.00
2022-12-09T01:21:30.123Z,0.00
2022-12-09T01:23:57.555Z,0.00
2022-12-09T01:26:25.283Z,0.10
2022-12-09T01:28:53.389Z,0.10
2022-12-09T01:31:23.991Z,0.10
2022-12-09T01:33:52.587Z,0.10
2022-12-09T01:36:22.737Z,0.10
2022-12-09T01:38:50.606Z,0.10
2022-12-09T01:41:19.321Z,0.20
2022-12-09T01:44:06.601Z,0.10
2022-12-09T01:46:34.068Z,0.20
2022-12-09T01:49:01.487Z,0.20
2022-12-09T01:51:30.424Z,0.20
2022-12-09T01:53:58.745Z,0.30
2022-12-09T01:56:30.479Z,0.20
2022-12-09T01:59:01.846Z,0.20
2022-12-09T02:01:29.447Z,0.20
2022-12-09T02:03:56.928Z,0.20
2022-12-09T02:06:24.451Z,0.20
2022-12-09T02:08:52.462Z,0.20
2022-12-09T02:11:44.739Z,0.30
2022-12-09T02:14:16.877Z,0.40
2022-12-09T02:17:21.424Z,0.40
2022-12-09T02:20:01.461Z,0.40
2022-12-09T02:22:38.474Z,0.50
2022-12-09T02:25:19.954Z,0.40
2022-12-09T02:28:03.990Z,0.40
2022-12-09T02:30:50.554Z,0.40
2022-12-09T02:33:20.640Z,0.40
2022-12-09T02:35:54.993Z,0.40
2022-12-09T02:38:22.294Z,0.40
2022-12-09T02:41:10.229Z,0.40
2022-12-09T02:43:49.643Z,0.40
2022-12-09T02:46:20.272Z,0.50
2022-12-09T02:48:53.535Z,0.40
2022-12-09T02:51:22.124Z,0.30
2022-12-09T02:53:56.324Z,0.40
2022-12-09T02:56:24.876Z,0.40
2022-12-09T02:58:52.326Z,0.40
2022-12-09T03:01:36.605Z,0.40
2022-12-09T03:04:07.280Z,0.40
2022-12-09T03:06:45.584Z,0.40
2022-12-09T03:09:21.568Z,0.40
2022-12-09T03:11:50.810Z,0.40
2022-12-09T03:14:27.808Z,0.40
2022-12-09T03:17:08.992Z,0.50
2022-12-09T03:19:57.790Z,0.40
2022-12-09T03:22:29.490Z,0.40
2022-12-09T03:25:21.405Z,0.40
2022-12-09T03:27:57.828Z,0.50
2022-12-09T03:30:25.862Z,0.60
2022-12-09T03:32:55.817Z,0.50
2022-12-09T03:35:29.858Z,0.50
2022-12-09T03:37:59.294Z,0.50
2022-12-09T03:40:29.587Z,0.60
2022-12-09T03:43:02.383Z,0.60
2022-12-09T03:45:30.221Z,0.60
2022-12-09T03:47:57.990Z,0.60
2022-12-09T03:50:29.421Z,0.60
2022-12-09T03:53:20.381Z,0.60
2022-12-09T03:56:24.614Z,0.60
2022-12-09T03:58:55.442Z,0.60
2022-12-09T04:01:25.533Z,0.60
2022-12-09T04:03:55.716Z,0.70
2022-12-09T04:06:24.683Z,0.60
2022-12-09T04:08:52.131Z,0.80
2022-12-09T04:11:20.405Z,0.80
2022-12-09T04:13:47.941Z,0.80
2022-12-09T04:16:15.670Z,0.80
2022-12-09T04:18:43.303Z,0.70
2022-12-09T04:21:13.304Z,0.70
2022-12-09T04:23:43.221Z,0.80
2022-12-09T04:26:16.322Z,0.70
2022-12-09T04:28:44.098Z,0.80
2022-12-09T04:31:13.035Z,0.70
2022-12-09T04:33:41.745Z,0.70
2022-12-09T04:36:12.400Z,0.70
2022-12-09T04:38:40.962Z,0.70
2022-12-09T04:41:09.192Z,0.80
2022-12-09T04:43:36.506Z,0.70
2022-12-09T04:46:06.655Z,0.60
2022-12-09T04:48:34.307Z,0.50
2022-12-09T04:51:02.027Z,0.60
2022-12-09T04:53:29.438Z,0.60
2022-12-09T04:56:05.463Z,0.60
2022-12-09T04:58:33.728Z,0.60
2022-12-09T05:01:09.811Z,0.60
2022-12-09T05:03:37.671Z,0.60
2022-12-09T05:06:07.962Z,0.60
2022-12-09T05:08:35.839Z,0.60
2022-12-09T05:11:04.058Z,0.60
2022-12-09T05:13:31.530Z,0.60
2022-12-09T05:16:01.968Z,0.60
2022-12-09T05:18:29.962Z,0.70
2022-12-09T05:20:57.878Z,0.80
2022-12-09T05:23:26.037Z,0.80
2022-12-09T05:25:56.030Z,0.90
2022-12-09T05:28:23.268Z,0.90
2022-12-09T05:30:50.553Z,0.90
2022-12-09T05:33:18.323Z,1.00
2022-12-09T05:35:52.685Z,1.00
2022-12-09T05:38:20.857Z,1.00
2022-12-09T05:40:48.491Z,1.00
2022-12-09T05:43:16.132Z,0.90
2022-12-09T05:45:44.413Z,0.90
2022-12-09T05:48:11.997Z,0.90
2022-12-09T05:50:39.443Z,0.90
2022-12-09T05:53:06.760Z,0.90
2022-12-09T05:55:34.140Z,0.80
2022-12-09T05:58:01.525Z,0.80
2022-12-09T06:00:29.146Z,0.90
2022-12-09T06:02:56.849Z,0.90
2022-12-09T06:05:24.512Z,0.80
2022-12-09T06:07:52.290Z,0.80
2022-12-09T06:10:19.877Z,0.70
2022-12-09T06:12:47.270Z,0.70
2022-12-09T06:15:21.251Z,0.70
2022-12-09T06:17:49.058Z,0.90
2022-12-09T06:20:18.829Z,0.80
2022-12-09T06:22:46.357Z,0.70
2022-12-09T06:25:13.947Z,0.60
2022-12-09T06:27:41.841Z,0.40
2022-12-09T06:30:10.049Z,0.30
2022-12-09T06:32:37.505Z,0.10
2022-12-09T06:35:07.703Z,0.10
2022-12-09T06:37:35.556Z,0.00
2022-12-09T06:40:03.311Z,0.10
2022-12-09T06:42:30.740Z,0.10
2022-12-09T06:44:58.159Z,0.10
2022-12-09T06:47:25.684Z,0.10
2022-12-09T06:49:53.285Z,0.10
2022-12-09T06:52:20.894Z,0.10
2022-12-09T06:54:48.245Z,0.20
2022-12-09T06:57:15.552Z,0.20
2022-12-09T06:59:42.866Z,0.30
2022-12-09T07:02:11.647Z,0.30
2022-12-09T07:04:39.522Z,0.40
2022-12-09T07:07:07.284Z,0.50
2022-12-09T07:09:34.775Z,0.50
2022-12-09T07:12:02.388Z,0.60
2022-12-09T07:14:29.638Z,0.60
2022-12-09T07:16:57.257Z,0.60
2022-12-09T07:19:24.803Z,0.60
2022-12-09T07:21:52.474Z,0.60
2022-12-09T07:24:20.666Z,0.70
2022-12-09T07:26:49.321Z,0.70
2022-12-09T07:29:17.801Z,0.70
2022-12-09T07:31:45.292Z,0.70
2022-12-09T07:34:12.984Z,0.70
2022-12-09T07:36:41.514Z,0.70
2022-12-09T07:39:14.740Z,0.60
2022-12-09T07:41:42.736Z,0.60
2022-12-09T07:44:11.134Z,0.60
2022-12-09T07:46:39.711Z,0.70
2022-12-09T07:49:07.411Z,0.80
2022-12-09T07:51:34.984Z,0.80
2022-12-09T07:54:03.361Z,0.80
2022-12-09T07:56:30.907Z,0.90
2022-12-09T07:58:58.834Z,1.00
2022-12-09T08:01:30.048Z,1.00
2022-12-09T08:03:58.187Z,1.10
2022-12-09T08:06:28.238Z,1.20
2022-12-09T08:09:04.185Z,1.30
2022-12-09T08:11:33.109Z,1.30
2022-12-09T08:14:09.255Z,1.30
2022-12-09T08:16:38.400Z,1.30
2022-12-09T08:19:06.202Z,1.30
2022-12-09T08:21:34.316Z,1.30
2022-12-09T08:24:06.043Z,1.30
2022-12-09T08:26:35.181Z,1.30
2022-12-09T08:29:06.604Z,1.50
2022-12-09T08:31:40.326Z,1.40
2022-12-09T08:34:09.243Z,1.50
2022-12-09T08:36:37.357Z,1.60
2022-12-09T08:39:05.281Z,1.70
2022-12-09T08:41:37.567Z,1.80
2022-12-09T08:44:07.203Z,1.80
2022-12-09T08:46:37.240Z,1.80
2022-12-09T08:49:06.439Z,1.90
2022-12-09T08:51:34.093Z,1.70
2022-12-09T08:54:02.492Z,1.80
2022-12-09T08:56:29.976Z,1.80
2022-12-09T08:58:57.436Z,1.90
2022-12-09T09:01:32.377Z,2.00
2022-12-09T09:04:06.415Z,2.00
2022-12-09T09:06:34.621Z,2.10
2022-12-09T09:09:03.099Z,2.00
2022-12-09T09:11:31.613Z,2.00
2022-12-09T09:13:59.503Z,2.00
2022-12-09T09:16:27.576Z,2.00
2022-12-09T09:18:56.393Z,2.00
2022-12-09T09:21:26.884Z,1.90
2022-12-09T09:23:54.832Z,1.80
2022-12-09T09:26:26.008Z,1.70
2022-12-09T09:28:55.094Z,1.80
2022-12-09T09:31:24.099Z,1.80
2022-12-09T09:33:52.157Z,1.80
2022-12-09T09:36:22.595Z,1.70
2022-12-09T09:38:53.154Z,1.70
2022-12-09T09:41:45.464Z,1.80
2022-12-09T09:44:21.857Z,1.90
2022-12-09T09:46:50.938Z,2.00
2022-12-09T09:49:37.408Z,2.20
2022-12-09T09:52:09.662Z,2.20
2022-12-09T09:54:38.031Z,2.40
2022-12-09T09:57:24.130Z,2.40
2022-12-09T09:59:54.291Z,2.40
2022-12-09T10:02:46.342Z,2.40
2022-12-09T10:05:19.528Z,2.30
2022-12-09T10:07:52.603Z,2.40
2022-12-09T10:10:32.373Z,2.40
2022-12-09T10:13:17.913Z,2.50
2022-12-09T10:16:29.197Z,2.50
2022-12-09T10:19:07.395Z,2.70
2022-12-09T10:21:42.816Z,2.70
2022-12-09T10:24:39.148Z,2.80
2022-12-09T10:27:25.218Z,2.70
2022-12-09T10:30:01.031Z,2.80
2022-12-09T10:32:33.554Z,2.80
2022-12-09T10:35:02.442Z,2.90
2022-12-09T10:37:33.910Z,2.90
2022-12-09T10:40:10.988Z,2.80
2022-12-09T10:43:05.699Z,2.80
2022-12-09T10:46:07.930Z,2.70
2022-12-09T10:48:32.683Z,2.80
2022-12-09T10:51:10.550Z,2.80
2022-12-09T10:53:44.004Z,2.90
2022-12-09T10:56:20.134Z,2.90
2022-12-09T10:58:47.986Z,3.00
2022-12-09T11:01:16.222Z,3.00
2022-12-09T11:03:53.613Z,3.10
2022-12-09T11:06:31.352Z,3.00
2022-12-09T11:09:01.142Z,3.00
2022-12-09T11:11:50.595Z,3.10
2022-12-09T11:14:25.718Z,3.10
2022-12-09T11:16:59.672Z,3.20
2022-12-09T11:19:39.029Z,3.20
2022-12-09T11:22:15.266Z,3.10
2022-12-09T11:24:42.719Z,3.10
2022-12-09T11:27:32.047Z,3.00
2022-12-09T11:30:35.633Z,3.00
2022-12-09T11:33:16.396Z,3.10
2022-12-09T11:35:44.739Z,3.10
2022-12-09T11:38:40.196Z,3.10
2022-12-09T11:41:15.233Z,3.10
2022-12-09T11:43:54.695Z,3.10
2022-12-09T11:46:27.920Z,3.10
2022-12-09T11:49:04.349Z,3.00
2022-12-09T11:51:35.980Z,3.10
2022-12-09T11:54:15.388Z,3.20
2022-12-09T11:56:43.555Z,3.20
2022-12-09T11:59:34.758Z,3.10
2022-12-09T12:02:30.368Z,3.10
2022-12-09T12:05:09.062Z,3.10
2022-12-09T12:07:46.489Z,3.20
2022-12-09T12:10:24.460Z,3.10
2022-12-09T12:13:04.448Z,3.20
2022-12-09T12:15:46.672Z,3.20
2022-12-09T12:18:19.428Z,3.20
2022-12-09T12:21:28.025Z,3.30
2022-12-09T12:24:10.636Z,3.40
2022-12-09T12:27:10.838Z,3.30
2022-12-09T12:29:56.448Z,3.30
2022-12-09T12:33:59.850Z,3.30
2022-12-09T12:36:03.305Z,3.30
2022-12-09T12:38:49.099Z,3.30
2022-12-09T12:41:16.227Z,3.20
2022-12-09T12:44:08.338Z,3.20
2022-12-09T12:46:50.713Z,3.20
2022-12-09T12:49:17.953Z,3.20
2022-12-09T12:51:52.664Z,3.20
2022-12-09T12:54:48.580Z,3.30
2022-12-09T12:57:22.184Z,3.30
2022-12-09T13:00:08.158Z,3.30
2022-12-09T13:03:00.013Z,3.40
2022-12-09T13:05:42.326Z,3.40
2022-12-09T13:08:22.818Z,3.30
2022-12-09T13:10:55.792Z,3.30
2022-12-09T13:13:38.379Z,3.40
2022-12-09T13:16:39.300Z,3.40
2022-12-09T13:19:30.092Z,3.50
2022-12-09T13:21:57.976Z,3.50
2022-12-09T13:24:33.534Z,3.40
2022-12-09T13:27:19.099Z,3.40
2022-12-09T13:30:05.543Z,3.40
2022-12-09T13:33:03.359Z,3.40
2022-12-09T13:35:38.365Z,3.40
2022-12-09T13:38:32.515Z,3.50
2022-12-09T13:41:00.315Z,3.50
2022-12-09T13:43:31.871Z,3.40
2022-12-09T13:46:01.072Z,3.40
2022-12-09T13:48:36.315Z,3.40
2022-12-09T13:51:03.844Z,3.30
2022-12-09T13:53:41.314Z,3.30
2022-12-09T13:56:28.858Z,3.30
2022-12-09T13:59:20.889Z,3.30
2022-12-09T14:01:53.339Z,3.20
2022-12-09T14:04:29.092Z,3.20
2022-12-09T14:07:09.851Z,3.20
2022-12-09T14:09:47.131Z,3.10
2022-12-09T14:12:40.991Z,3.20
2022-12-09T14:15:23.623Z,3.20
2022-12-09T14:17:50.828Z,3.20
2022-12-09T14:20:28.256Z,3.10
2022-12-09T14:23:07.495Z,3.10
2022-12-09T14:25:34.760Z,3.10
2022-12-09T14:28:13.930Z,3.20
2022-12-09T14:30:48.925Z,3.10
2022-12-09T14:33:32.659Z,3.00
2022-12-09T14:36:15.064Z,3.00
2022-12-09T14:39:22.513Z,3.10
2022-12-09T14:41:45.088Z,3.10
2022-12-09T14:44:41.544Z,3.00
2022-12-09T14:47:17.023Z,2.90
2022-12-09T14:49:49.165Z,2.90
2022-12-09T14:52:29.113Z,2.80
2022-12-09T14:54:58.858Z,2.90
2022-12-09T14:57:41.677Z,2.90
2022-12-09T15:00:30.772Z,2.90
2022-12-09T15:03:30.656Z,2.80
2022-12-09T15:06:18.577Z,2.80
2022-12-09T15:08:46.844Z,2.80
2022-12-09T15:11:24.172Z,2.80
2022-12-09T15:13:53.915Z,2.80
2022-12-09T15:16:24.407Z,2.80
2022-12-09T15:18:54.213Z,2.90
2022-12-09T15:21:30.144Z,2.90
2022-12-09T15:23:59.451Z,2.90
2022-12-09T15:26:35.185Z,3.00
2022-12-09T15:29:05.602Z,3.00
2022-12-09T15:31:34.380Z,2.90
2022-12-09T15:34:20.424Z,3.00
2022-12-09T15:36:55.452Z,3.00
2022-12-09T15:39:52.255Z,2.90
2022-12-09T15:42:27.205Z,2.90
2022-12-09T15:45:09.819Z,2.90
2022-12-09T15:47:41.888Z,2.80
2022-12-09T15:50:29.383Z,2.70
2022-12-09T15:53:14.007Z,2.70
2022-12-09T15:56:02.684Z,2.80
2022-12-09T15:58:40.396Z,2.80
2022-12-09T16:01:07.839Z,2.80
2022-12-09T16:03:36.910Z,2.90
2022-12-09T16:06:09.416Z,2.90
2022-12-09T16:08:44.814Z,2.90
2022-12-09T16:11:12.443Z,2.90
2022-12-09T16:13:59.078Z,2.80
2022-12-09T16:16:51.694Z,2.80
2022-12-09T16:19:36.139Z,2.80
2022-12-09T16:22:09.085Z,2.80
2022-12-09T16:27:39.748Z,2.80
2022-12-09T16:30:16.156Z,2.80
2022-12-09T16:32:54.825Z,2.80
2022-12-09T16:35:33.393Z,2.80
2022-12-09T16:38:19.540Z,2.80
2022-12-09T16:40:46.718Z,2.80
2022-12-09T16:43:17.085Z,2.80
2022-12-09T16:45:45.633Z,2.80
2022-12-09T16:48:13.570Z,2.70
2022-12-09T16:51:09.607Z,2.70
2022-12-09T16:53:52.469Z,2.80
2022-12-09T16:56:19.666Z,2.80
2022-12-09T16:58:47.392Z,2.80
2022-12-09T17:01:16.568Z,2.70
2022-12-09T17:03:55.467Z,2.70
2022-12-09T17:06:22.644Z,2.80
2022-12-09T17:08:49.866Z,2.70
2022-12-09T17:11:17.853Z,2.70
2022-12-09T17:13:45.087Z,2.70
2022-12-09T17:16:12.516Z,2.50
2022-12-09T17:18:39.980Z,2.50
2022-12-09T17:21:13.017Z,2.50
2022-12-09T17:23:43.688Z,2.40
2022-12-09T17:26:16.786Z,2.40
2022-12-09T17:28:44.906Z,2.40
2022-12-09T17:31:30.296Z,2.30
2022-12-09T17:33:57.846Z,2.30
2022-12-09T17:36:25.038Z,2.30
2022-12-09T17:38:52.256Z,2.30
2022-12-09T17:41:23.519Z,2.30
2022-12-09T17:43:51.009Z,2.20
2022-12-09T17:46:18.425Z,2.20
2022-12-09T17:48:45.760Z,2.20
2022-12-09T17:51:15.172Z,2.20
2022-12-09T17:53:43.447Z,2.10
2022-12-09T17:56:21.910Z,2.00
2022-12-09T17:58:56.459Z,2.00
2022-12-09T18:01:24.705Z,2.00
2022-12-09T18:03:57.141Z,1.90
2022-12-09T18:06:26.887Z,1.80
2022-12-09T18:08:54.741Z,1.60
2022-12-09T18:11:22.906Z,1.60
2022-12-09T18:13:50.300Z,1.70
2022-12-09T18:16:18.045Z,1.70
2022-12-09T18:18:45.932Z,1.70
2022-12-09T18:21:16.070Z,1.70
2022-12-09T18:23:44.001Z,1.60
2022-12-09T18:26:16.773Z,1.60
2022-12-09T18:28:44.253Z,1.60
2022-12-09T18:31:14.756Z,1.60
2022-12-09T18:33:42.885Z,1.60
2022-12-09T18:36:16.657Z,1.50
2022-12-09T18:38:44.003Z,1.50
2022-12-09T18:41:20.087Z,1.40
2022-12-09T18:43:49.816Z,1.40
2022-12-09T18:46:23.869Z,1.40
2022-12-09T18:49:01.508Z,1.40
2022-12-09T18:51:29.480Z,1.30
2022-12-09T18:54:01.120Z,1.40
2022-12-09T18:56:29.401Z,1.30
2022-12-09T18:59:06.627Z,1.40
2022-12-09T19:01:40.384Z,1.40
2022-12-09T19:04:37.343Z,1.40
2022-12-09T19:07:04.687Z,1.50
2022-12-09T19:09:34.765Z,1.50
2022-12-09T19:12:37.939Z,1.50
2022-12-09T19:14:51.632Z,1.50
2022-12-09T19:17:18.999Z,1.50
2022-12-09T19:19:47.362Z,1.40
2022-12-09T19:22:14.692Z,1.50
2022-12-09T19:24:43.449Z,1.30
2022-12-09T19:27:11.116Z,1.30
2022-12-09T19:29:39.562Z,1.20
2022-12-09T19:32:23.626Z,1.30
2022-12-09T19:34:54.144Z,1.30
2022-12-09T19:37:21.478Z,1.40
2022-12-09T19:39:49.175Z,1.40
2022-12-09T19:42:16.397Z,1.40
2022-12-09T19:45:00.738Z,1.50
2022-12-09T19:47:29.378Z,1.60
2022-12-09T19:49:56.636Z,1.60
2022-12-09T19:52:23.897Z,1.60
2022-12-09T19:54:51.212Z,1.60
2022-12-09T19:57:18.408Z,1.60
2022-12-09T19:59:47.411Z,1.60
2022-12-09T20:02:15.156Z,1.60
2022-12-09T20:04:50.846Z,1.70
2022-12-09T20:07:19.650Z,1.60
2022-12-09T20:09:47.524Z,1.60
2022-12-09T20:12:14.839Z,1.60
2022-12-09T20:14:43.192Z,1.50
2022-12-09T20:17:10.501Z,1.40
2022-12-09T20:19:37.758Z,1.40
2022-12-09T20:22:04.950Z,1.40
2022-12-09T20:24:32.272Z,1.30
2022-12-09T20:26:59.649Z,1.40
2022-12-09T20:29:29.066Z,1.30
2022-12-09T20:31:59.854Z,1.30
2022-12-09T20:34:27.176Z,1.30
2022-12-09T20:36:54.768Z,1.30
2022-12-09T20:39:22.242Z,1.40
2022-12-09T20:41:49.697Z,1.40
2022-12-09T20:44:20.067Z,1.40
2022-12-09T20:46:50.400Z,1.30
2022-12-09T20:49:19.814Z,1.30
2022-12-09T20:51:48.716Z,1.30
2022-12-09T20:54:16.298Z,1.30
2022-12-09T20:56:43.740Z,1.30
2022-12-09T20:59:13.714Z,1.40
2022-12-09T21:01:43.640Z,1.30
2022-12-09T21:04:10.901Z,1.30
2022-12-09T21:06:39.695Z,1.30
2022-12-09T21:09:10.466Z,1.20
2022-12-09T21:11:37.993Z,1.20
2022-12-09T21:14:06.954Z,1.20
2022-12-09T21:16:37.753Z,1.20
2022-12-09T21:19:07.277Z,1.20
2022-12-09T21:21:36.614Z,1.20
2022-12-09T21:24:04.741Z,1.30
2022-12-09T21:26:31.985Z,1.20
2022-12-09T21:29:01.348Z,1.20
2022-12-09T21:31:30.943Z,1.30
2022-12-09T21:34:03.983Z,1.20
2022-12-09T21:36:37.135Z,1.30
2022-12-09T21:39:05.474Z,1.30
2022-12-09T21:41:34.719Z,1.30
2022-12-09T21:44:02.401Z,1.30
2022-12-09T21:46:37.264Z,1.40
2022-12-09T21:49:06.340Z,1.50
2022-12-09T21:51:35.004Z,1.60
2022-12-09T21:54:02.644Z,1.60
2022-12-09T21:56:32.807Z,1.80
2022-12-09T21:59:00.979Z,1.70
2022-12-09T22:01:34.856Z,1.80
2022-12-09T22:04:04.523Z,1.80
2022-12-09T22:06:32.136Z,1.70
2022-12-09T22:08:59.929Z,1.70
2022-12-09T22:11:29.553Z,1.80
2022-12-09T22:14:01.482Z,1.80
2022-12-09T22:16:31.951Z,1.80
2022-12-09T22:19:00.789Z,1.80
2022-12-09T22:21:30.697Z,1.90
2022-12-09T22:24:00.478Z,2.00
2022-12-09T22:26:28.717Z,2.00
2022-12-09T22:28:58.606Z,2.00
2022-12-09T22:31:29.183Z,2.00
2022-12-09T22:34:02.439Z,2.00
2022-12-09T22:36:29.937Z,2.00
2022-12-09T22:38:57.347Z,2.10
2022-12-09T22:41:27.067Z,2.10
2022-12-09T22:43:55.807Z,2.20
2022-12-09T22:46:26.961Z,2.20
2022-12-09T22:48:56.379Z,2.30
2022-12-09T22:51:29.589Z,2.30
2022-12-09T22:53:57.952Z,2.30
2022-12-09T22:56:25.958Z,2.20
2022-12-09T22:58:54.007Z,2.20
2022-12-09T23:01:27.800Z,2.10
2022-12-09T23:03:56.459Z,2.10
2022-12-09T23:06:25.150Z,2.20
2022-12-09T23:08:53.214Z,2.20
2022-12-09T23:11:22.680Z,2.20
2022-12-09T23:13:50.382Z,2.20
2022-12-09T23:16:20.373Z,2.20
2022-12-09T23:18:47.981Z,2.20
2022-12-09T23:21:21.177Z,2.20
2022-12-09T23:23:51.173Z,2.20
2022-12-09T23:26:19.972Z,2.20
2022-12-09T23:28:50.202Z,2.10
2022-12-09T23:31:20.064Z,2.20
2022-12-09T23:33:48.248Z,2.20
2022-12-09T23:36:25.040Z,2.20
2022-12-09T23:38:53.423Z,2.20
2022-12-09T23:41:22.528Z,2.20
2022-12-09T23:43:51.041Z,2.20
2022-12-09T23:46:21.362Z,2.30
2022-12-09T23:48:50.253Z,2.30
2022-12-09T23:51:19.170Z,2.30
2022-12-09T23:53:48.891Z,2.30
2022-12-09T23:56:23.926Z,2.40
2022-12-09T23:58:59.351Z,2.30
